sensor_id;sensor_type;location;lat;lon;timestamp;P1;durP1;ratioP1;P2;durP2;ratioP2
51852;SDS011;37894;53.172;6.598;2022-07-09T00:00:22;15.23;;;7.40;;
51852;SDS011;37894;53.172;6.598;2022-07-09T00:02:48;16.98;;;8.60;;
51852;SDS011;37894;53.172;6.598;2022-07-09T00:05:13;18.83;;;7.53;;
51852;SDS011;37894;53.172;6.598;2022-07-09T00:07:39;15.90;;;7.75;;
51852;SDS011;37894;53.172;6.598;2022-07-09T00:10:06;16.98;;;7.63;;
51852;SDS011;37894;53.172;6.598;2022-07-09T00:12:32;16.35;;;7.15;;
51852;SDS011;37894;53.172;6.598;2022-07-09T00:14:58;12.95;;;8.02;;
51852;SDS011;37894;53.172;6.598;2022-07-09T00:17:23;14.55;;;9.10;;
51852;SDS011;37894;53.172;6.598;2022-07-09T00:19:50;15.00;;;7.85;;
51852;SDS011;37894;53.172;6.598;2022-07-09T00:22:16;13.63;;;8.75;;
51852;SDS011;37894;53.172;6.598;2022-07-09T00:24:42;16.63;;;7.97;;
51852;SDS011;37894;53.172;6.598;2022-07-09T00:27:08;17.75;;;8.75;;
51852;SDS011;37894;53.172;6.598;2022-07-09T00:29:34;18.42;;;10.23;;
51852;SDS011;37894;53.172;6.598;2022-07-09T00:31:59;15.43;;;8.40;;
51852;SDS011;37894;53.172;6.598;2022-07-09T00:34:25;18.20;;;9.35;;
51852;SDS011;37894;53.172;6.598;2022-07-09T00:36:51;20.83;;;10.75;;
51852;SDS011;37894;53.172;6.598;2022-07-09T00:39:16;15.20;;;9.27;;
51852;SDS011;37894;53.172;6.598;2022-07-09T00:41:42;14.77;;;9.43;;
51852;SDS011;37894;53.172;6.598;2022-07-09T00:44:08;19.25;;;9.70;;
51852;SDS011;37894;53.172;6.598;2022-07-09T00:46:33;24.50;;;9.55;;
51852;SDS011;37894;53.172;6.598;2022-07-09T00:48:59;16.35;;;8.52;;
51852;SDS011;37894;53.172;6.598;2022-07-09T00:51:28;13.10;;;8.07;;
51852;SDS011;37894;53.172;6.598;2022-07-09T00:53:55;19.52;;;8.57;;
51852;SDS011;37894;53.172;6.598;2022-07-09T00:56:22;18.13;;;9.40;;
51852;SDS011;37894;53.172;6.598;2022-07-09T00:58:48;18.45;;;8.70;;
51852;SDS011;37894;53.172;6.598;2022-07-09T01:01:15;21.85;;;10.35;;
51852;SDS011;37894;53.172;6.598;2022-07-09T01:03:40;18.63;;;9.10;;
51852;SDS011;37894;53.172;6.598;2022-07-09T01:06:06;23.52;;;9.73;;
51852;SDS011;37894;53.172;6.598;2022-07-09T01:08:32;20.83;;;9.15;;
51852;SDS011;37894;53.172;6.598;2022-07-09T01:10:58;16.92;;;9.02;;
51852;SDS011;37894;53.172;6.598;2022-07-09T01:13:24;19.10;;;8.90;;
51852;SDS011;37894;53.172;6.598;2022-07-09T01:15:50;17.40;;;9.07;;
51852;SDS011;37894;53.172;6.598;2022-07-09T01:18:16;14.20;;;8.57;;
51852;SDS011;37894;53.172;6.598;2022-07-09T01:20:43;17.83;;;8.55;;
51852;SDS011;37894;53.172;6.598;2022-07-09T01:23:09;14.77;;;7.88;;
51852;SDS011;37894;53.172;6.598;2022-07-09T01:25:39;15.00;;;8.23;;
51852;SDS011;37894;53.172;6.598;2022-07-09T01:28:07;16.83;;;8.32;;
51852;SDS011;37894;53.172;6.598;2022-07-09T01:30:35;15.20;;;8.15;;
51852;SDS011;37894;53.172;6.598;2022-07-09T01:33:02;17.67;;;8.23;;
51852;SDS011;37894;53.172;6.598;2022-07-09T01:35:29;17.08;;;8.32;;
51852;SDS011;37894;53.172;6.598;2022-07-09T01:37:55;16.83;;;7.82;;
51852;SDS011;37894;53.172;6.598;2022-07-09T01:40:21;16.13;;;8.02;;
51852;SDS011;37894;53.172;6.598;2022-07-09T01:42:48;16.55;;;7.97;;
51852;SDS011;37894;53.172;6.598;2022-07-09T01:45:14;17.88;;;8.15;;
51852;SDS011;37894;53.172;6.598;2022-07-09T01:47:40;14.07;;;7.47;;
51852;SDS011;37894;53.172;6.598;2022-07-09T01:50:06;20.65;;;7.15;;
51852;SDS011;37894;53.172;6.598;2022-07-09T01:52:33;16.25;;;7.53;;
51852;SDS011;37894;53.172;6.598;2022-07-09T01:54:59;18.50;;;8.00;;
51852;SDS011;37894;53.172;6.598;2022-07-09T01:57:25;16.02;;;7.57;;
51852;SDS011;37894;53.172;6.598;2022-07-09T01:59:51;16.42;;;7.85;;
51852;SDS011;37894;53.172;6.598;2022-07-09T02:02:17;12.32;;;7.40;;
51852;SDS011;37894;53.172;6.598;2022-07-09T02:04:43;14.85;;;7.00;;
51852;SDS011;37894;53.172;6.598;2022-07-09T02:07:10;16.98;;;7.80;;
51852;SDS011;37894;53.172;6.598;2022-07-09T02:09:37;16.65;;;7.70;;
51852;SDS011;37894;53.172;6.598;2022-07-09T02:12:02;17.80;;;7.80;;
51852;SDS011;37894;53.172;6.598;2022-07-09T02:14:29;11.95;;;7.25;;
51852;SDS011;37894;53.172;6.598;2022-07-09T02:16:56;23.55;;;9.50;;
51852;SDS011;37894;53.172;6.598;2022-07-09T02:19:21;27.20;;;9.05;;
51852;SDS011;37894;53.172;6.598;2022-07-09T02:21:47;16.63;;;8.13;;
51852;SDS011;37894;53.172;6.598;2022-07-09T02:24:13;20.27;;;8.05;;
51852;SDS011;37894;53.172;6.598;2022-07-09T02:26:39;15.75;;;7.85;;
51852;SDS011;37894;53.172;6.598;2022-07-09T02:29:05;21.67;;;8.02;;
51852;SDS011;37894;53.172;6.598;2022-07-09T02:31:31;13.38;;;7.80;;
51852;SDS011;37894;53.172;6.598;2022-07-09T02:33:56;14.40;;;7.75;;
51852;SDS011;37894;53.172;6.598;2022-07-09T02:36:22;21.08;;;8.48;;
51852;SDS011;37894;53.172;6.598;2022-07-09T02:38:48;15.80;;;7.78;;
51852;SDS011;37894;53.172;6.598;2022-07-09T02:41:14;22.15;;;8.02;;
51852;SDS011;37894;53.172;6.598;2022-07-09T02:43:39;15.73;;;7.45;;
51852;SDS011;37894;53.172;6.598;2022-07-09T02:46:08;15.63;;;7.95;;
51852;SDS011;37894;53.172;6.598;2022-07-09T02:48:35;15.05;;;8.07;;
51852;SDS011;37894;53.172;6.598;2022-07-09T02:51:00;16.50;;;7.38;;
51852;SDS011;37894;53.172;6.598;2022-07-09T02:53:26;24.75;;;8.50;;
51852;SDS011;37894;53.172;6.598;2022-07-09T02:55:52;15.30;;;7.32;;
51852;SDS011;37894;53.172;6.598;2022-07-09T02:58:17;17.70;;;8.40;;
51852;SDS011;37894;53.172;6.598;2022-07-09T03:00:43;14.95;;;7.30;;
51852;SDS011;37894;53.172;6.598;2022-07-09T03:03:09;16.90;;;7.43;;
51852;SDS011;37894;53.172;6.598;2022-07-09T03:05:35;15.13;;;7.18;;
51852;SDS011;37894;53.172;6.598;2022-07-09T03:08:01;15.15;;;7.10;;
51852;SDS011;37894;53.172;6.598;2022-07-09T03:10:27;15.20;;;6.82;;
51852;SDS011;37894;53.172;6.598;2022-07-09T03:12:54;12.02;;;6.18;;
51852;SDS011;37894;53.172;6.598;2022-07-09T03:15:20;12.85;;;6.10;;
51852;SDS011;37894;53.172;6.598;2022-07-09T03:17:46;17.63;;;6.60;;
51852;SDS011;37894;53.172;6.598;2022-07-09T03:20:12;13.40;;;6.13;;
51852;SDS011;37894;53.172;6.598;2022-07-09T03:22:39;12.07;;;6.22;;
51852;SDS011;37894;53.172;6.598;2022-07-09T03:25:05;12.77;;;6.43;;
51852;SDS011;37894;53.172;6.598;2022-07-09T03:27:31;13.30;;;5.97;;
51852;SDS011;37894;53.172;6.598;2022-07-09T03:29:58;12.18;;;5.93;;
51852;SDS011;37894;53.172;6.598;2022-07-09T03:32:24;14.30;;;6.68;;
51852;SDS011;37894;53.172;6.598;2022-07-09T03:34:50;15.23;;;6.60;;
51852;SDS011;37894;53.172;6.598;2022-07-09T03:37:17;12.80;;;6.45;;
51852;SDS011;37894;53.172;6.598;2022-07-09T03:39:44;15.23;;;6.93;;
51852;SDS011;37894;53.172;6.598;2022-07-09T03:42:10;19.67;;;6.88;;
51852;SDS011;37894;53.172;6.598;2022-07-09T03:44:37;13.82;;;6.53;;
51852;SDS011;37894;53.172;6.598;2022-07-09T03:47:03;16.50;;;6.00;;
51852;SDS011;37894;53.172;6.598;2022-07-09T03:49:29;12.52;;;6.53;;
51852;SDS011;37894;53.172;6.598;2022-07-09T03:51:54;16.13;;;6.30;;
51852;SDS011;37894;53.172;6.598;2022-07-09T03:54:20;19.13;;;6.97;;
51852;SDS011;37894;53.172;6.598;2022-07-09T03:56:46;13.82;;;6.93;;
51852;SDS011;37894;53.172;6.598;2022-07-09T03:59:12;15.77;;;6.95;;
51852;SDS011;37894;53.172;6.598;2022-07-09T04:01:37;16.55;;;6.63;;
51852;SDS011;37894;53.172;6.598;2022-07-09T04:04:03;13.55;;;6.57;;
51852;SDS011;37894;53.172;6.598;2022-07-09T04:06:29;18.58;;;7.68;;
51852;SDS011;37894;53.172;6.598;2022-07-09T04:08:56;15.52;;;6.35;;
51852;SDS011;37894;53.172;6.598;2022-07-09T04:11:22;17.17;;;7.20;;
51852;SDS011;37894;53.172;6.598;2022-07-09T04:13:48;12.30;;;6.65;;
51852;SDS011;37894;53.172;6.598;2022-07-09T04:16:14;12.43;;;6.80;;
51852;SDS011;37894;53.172;6.598;2022-07-09T04:18:40;12.48;;;6.15;;
51852;SDS011;37894;53.172;6.598;2022-07-09T04:21:09;15.73;;;7.00;;
51852;SDS011;37894;53.172;6.598;2022-07-09T04:23:35;15.27;;;7.00;;
51852;SDS011;37894;53.172;6.598;2022-07-09T04:26:01;15.68;;;7.18;;
51852;SDS011;37894;53.172;6.598;2022-07-09T04:28:27;13.00;;;6.68;;
51852;SDS011;37894;53.172;6.598;2022-07-09T04:30:52;12.55;;;6.35;;
51852;SDS011;37894;53.172;6.598;2022-07-09T04:33:18;13.18;;;7.15;;
51852;SDS011;37894;53.172;6.598;2022-07-09T04:35:47;13.43;;;7.13;;
51852;SDS011;37894;53.172;6.598;2022-07-09T04:38:12;11.13;;;6.30;;
51852;SDS011;37894;53.172;6.598;2022-07-09T04:40:38;12.25;;;6.25;;
51852;SDS011;37894;53.172;6.598;2022-07-09T04:43:05;13.60;;;6.47;;
51852;SDS011;37894;53.172;6.598;2022-07-09T04:45:31;10.82;;;6.28;;
51852;SDS011;37894;53.172;6.598;2022-07-09T04:47:57;17.27;;;6.15;;
51852;SDS011;37894;53.172;6.598;2022-07-09T04:50:24;11.95;;;5.57;;
51852;SDS011;37894;53.172;6.598;2022-07-09T04:52:50;10.57;;;6.18;;
51852;SDS011;37894;53.172;6.598;2022-07-09T04:55:16;15.18;;;5.95;;
51852;SDS011;37894;53.172;6.598;2022-07-09T04:57:42;10.38;;;5.85;;
51852;SDS011;37894;53.172;6.598;2022-07-09T05:00:09;14.25;;;6.15;;
51852;SDS011;37894;53.172;6.598;2022-07-09T05:02:36;17.27;;;5.93;;
51852;SDS011;37894;53.172;6.598;2022-07-09T05:05:02;14.02;;;5.97;;
51852;SDS011;37894;53.172;6.598;2022-07-09T05:07:30;14.55;;;5.55;;
51852;SDS011;37894;53.172;6.598;2022-07-09T05:09:56;11.98;;;5.35;;
51852;SDS011;37894;53.172;6.598;2022-07-09T05:12:22;13.23;;;5.60;;
51852;SDS011;37894;53.172;6.598;2022-07-09T05:14:47;9.30;;;4.70;;
51852;SDS011;37894;53.172;6.598;2022-07-09T05:17:13;10.77;;;5.53;;
51852;SDS011;37894;53.172;6.598;2022-07-09T05:19:39;13.40;;;5.95;;
51852;SDS011;37894;53.172;6.598;2022-07-09T05:22:05;12.05;;;5.15;;
51852;SDS011;37894;53.172;6.598;2022-07-09T05:24:30;11.32;;;5.18;;
51852;SDS011;37894;53.172;6.598;2022-07-09T05:26:56;14.05;;;5.40;;
51852;SDS011;37894;53.172;6.598;2022-07-09T05:29:22;9.85;;;4.90;;
51852;SDS011;37894;53.172;6.598;2022-07-09T05:31:49;13.00;;;5.53;;
51852;SDS011;37894;53.172;6.598;2022-07-09T05:34:15;11.77;;;4.95;;
51852;SDS011;37894;53.172;6.598;2022-07-09T05:36:41;9.88;;;4.63;;
51852;SDS011;37894;53.172;6.598;2022-07-09T05:39:07;10.63;;;4.60;;
51852;SDS011;37894;53.172;6.598;2022-07-09T05:41:33;11.77;;;4.70;;
51852;SDS011;37894;53.172;6.598;2022-07-09T05:43:58;9.00;;;4.03;;
51852;SDS011;37894;53.172;6.598;2022-07-09T05:46:24;9.95;;;4.88;;
51852;SDS011;37894;53.172;6.598;2022-07-09T05:48:50;11.05;;;4.60;;
51852;SDS011;37894;53.172;6.598;2022-07-09T05:51:17;8.90;;;4.22;;
51852;SDS011;37894;53.172;6.598;2022-07-09T05:53:43;10.45;;;3.63;;
51852;SDS011;37894;53.172;6.598;2022-07-09T05:56:08;10.45;;;4.20;;
51852;SDS011;37894;53.172;6.598;2022-07-09T05:58:34;8.75;;;3.72;;
51852;SDS011;37894;53.172;6.598;2022-07-09T06:01:01;14.88;;;4.68;;
51852;SDS011;37894;53.172;6.598;2022-07-09T06:03:26;8.40;;;3.85;;
51852;SDS011;37894;53.172;6.598;2022-07-09T06:05:52;10.05;;;3.70;;
51852;SDS011;37894;53.172;6.598;2022-07-09T06:08:18;8.15;;;4.60;;
51852;SDS011;37894;53.172;6.598;2022-07-09T06:10:43;8.57;;;4.13;;
51852;SDS011;37894;53.172;6.598;2022-07-09T06:13:09;7.57;;;3.70;;
51852;SDS011;37894;53.172;6.598;2022-07-09T06:15:34;9.50;;;3.78;;
51852;SDS011;37894;53.172;6.598;2022-07-09T06:18:01;10.57;;;3.90;;
51852;SDS011;37894;53.172;6.598;2022-07-09T06:20:26;6.30;;;3.30;;
51852;SDS011;37894;53.172;6.598;2022-07-09T06:22:52;5.43;;;3.80;;
51852;SDS011;37894;53.172;6.598;2022-07-09T06:25:18;10.02;;;3.03;;
51852;SDS011;37894;53.172;6.598;2022-07-09T06:27:43;8.68;;;3.20;;
51852;SDS011;37894;53.172;6.598;2022-07-09T06:30:09;6.15;;;3.40;;
51852;SDS011;37894;53.172;6.598;2022-07-09T06:32:35;8.63;;;3.25;;
51852;SDS011;37894;53.172;6.598;2022-07-09T06:35:00;5.60;;;3.20;;
51852;SDS011;37894;53.172;6.598;2022-07-09T06:37:27;7.05;;;3.28;;
51852;SDS011;37894;53.172;6.598;2022-07-09T06:39:53;9.02;;;3.88;;
51852;SDS011;37894;53.172;6.598;2022-07-09T06:42:22;7.47;;;3.50;;
51852;SDS011;37894;53.172;6.598;2022-07-09T06:44:47;7.63;;;3.00;;
51852;SDS011;37894;53.172;6.598;2022-07-09T06:47:13;6.07;;;2.65;;
51852;SDS011;37894;53.172;6.598;2022-07-09T06:49:39;9.93;;;2.88;;
51852;SDS011;37894;53.172;6.598;2022-07-09T06:52:05;7.20;;;2.90;;
51852;SDS011;37894;53.172;6.598;2022-07-09T06:54:32;6.47;;;2.65;;
51852;SDS011;37894;53.172;6.598;2022-07-09T06:56:58;10.00;;;2.97;;
51852;SDS011;37894;53.172;6.598;2022-07-09T06:59:24;8.48;;;2.90;;
51852;SDS011;37894;53.172;6.598;2022-07-09T07:01:50;7.75;;;2.65;;
51852;SDS011;37894;53.172;6.598;2022-07-09T07:04:15;7.93;;;3.00;;
51852;SDS011;37894;53.172;6.598;2022-07-09T07:06:41;7.53;;;2.63;;
51852;SDS011;37894;53.172;6.598;2022-07-09T07:09:07;5.45;;;2.67;;
51852;SDS011;37894;53.172;6.598;2022-07-09T07:11:33;8.55;;;2.90;;
51852;SDS011;37894;53.172;6.598;2022-07-09T07:14:00;7.47;;;3.00;;
51852;SDS011;37894;53.172;6.598;2022-07-09T07:16:25;7.70;;;2.40;;
51852;SDS011;37894;53.172;6.598;2022-07-09T07:18:51;7.63;;;2.70;;
51852;SDS011;37894;53.172;6.598;2022-07-09T07:21:17;7.72;;;2.97;;
51852;SDS011;37894;53.172;6.598;2022-07-09T07:23:43;6.20;;;2.38;;
51852;SDS011;37894;53.172;6.598;2022-07-09T07:26:08;10.48;;;2.40;;
51852;SDS011;37894;53.172;6.598;2022-07-09T07:28:34;7.85;;;2.83;;
51852;SDS011;37894;53.172;6.598;2022-07-09T07:31:00;5.63;;;2.30;;
51852;SDS011;37894;53.172;6.598;2022-07-09T07:33:26;8.18;;;2.60;;
51852;SDS011;37894;53.172;6.598;2022-07-09T07:35:51;6.43;;;2.55;;
51852;SDS011;37894;53.172;6.598;2022-07-09T07:38:17;9.10;;;2.40;;
51852;SDS011;37894;53.172;6.598;2022-07-09T07:40:42;6.80;;;2.45;;
51852;SDS011;37894;53.172;6.598;2022-07-09T07:43:11;6.70;;;2.65;;
51852;SDS011;37894;53.172;6.598;2022-07-09T07:45:37;7.72;;;2.40;;
51852;SDS011;37894;53.172;6.598;2022-07-09T07:48:03;8.38;;;2.30;;
51852;SDS011;37894;53.172;6.598;2022-07-09T07:50:29;10.95;;;2.65;;
51852;SDS011;37894;53.172;6.598;2022-07-09T07:52:55;4.32;;;2.17;;
51852;SDS011;37894;53.172;6.598;2022-07-09T07:55:21;6.20;;;2.42;;
51852;SDS011;37894;53.172;6.598;2022-07-09T07:57:47;3.53;;;1.88;;
51852;SDS011;37894;53.172;6.598;2022-07-09T08:00:13;5.88;;;2.58;;
51852;SDS011;37894;53.172;6.598;2022-07-09T08:02:39;7.28;;;2.20;;
51852;SDS011;37894;53.172;6.598;2022-07-09T08:05:05;4.43;;;2.00;;
51852;SDS011;37894;53.172;6.598;2022-07-09T08:07:31;7.22;;;2.03;;
51852;SDS011;37894;53.172;6.598;2022-07-09T08:09:57;5.40;;;1.95;;
51852;SDS011;37894;53.172;6.598;2022-07-09T08:12:23;7.95;;;2.10;;
51852;SDS011;37894;53.172;6.598;2022-07-09T08:14:49;6.88;;;2.08;;
51852;SDS011;37894;53.172;6.598;2022-07-09T08:17:14;5.38;;;1.77;;
51852;SDS011;37894;53.172;6.598;2022-07-09T08:19:40;9.65;;;2.10;;
51852;SDS011;37894;53.172;6.598;2022-07-09T08:22:06;9.32;;;2.13;;
51852;SDS011;37894;53.172;6.598;2022-07-09T08:24:32;4.43;;;1.65;;
51852;SDS011;37894;53.172;6.598;2022-07-09T08:26:57;5.78;;;1.83;;
51852;SDS011;37894;53.172;6.598;2022-07-09T08:29:24;6.70;;;1.70;;
51852;SDS011;37894;53.172;6.598;2022-07-09T08:31:50;5.47;;;1.70;;
51852;SDS011;37894;53.172;6.598;2022-07-09T08:34:15;7.75;;;2.60;;
51852;SDS011;37894;53.172;6.598;2022-07-09T08:36:41;4.57;;;2.05;;
51852;SDS011;37894;53.172;6.598;2022-07-09T08:39:07;4.32;;;2.03;;
51852;SDS011;37894;53.172;6.598;2022-07-09T08:41:33;7.07;;;1.80;;
51852;SDS011;37894;53.172;6.598;2022-07-09T08:43:58;7.75;;;1.90;;
51852;SDS011;37894;53.172;6.598;2022-07-09T08:46:27;7.35;;;1.98;;
51852;SDS011;37894;53.172;6.598;2022-07-09T08:48:53;6.28;;;1.80;;
51852;SDS011;37894;53.172;6.598;2022-07-09T08:51:20;5.47;;;1.85;;
51852;SDS011;37894;53.172;6.598;2022-07-09T08:53:47;4.47;;;1.95;;
51852;SDS011;37894;53.172;6.598;2022-07-09T08:56:13;7.82;;;2.00;;
51852;SDS011;37894;53.172;6.598;2022-07-09T08:58:40;4.93;;;1.40;;
51852;SDS011;37894;53.172;6.598;2022-07-09T09:01:06;5.93;;;1.85;;
51852;SDS011;37894;53.172;6.598;2022-07-09T09:03:33;3.78;;;1.42;;
51852;SDS011;37894;53.172;6.598;2022-07-09T09:06:07;4.95;;;1.83;;
51852;SDS011;37894;53.172;6.598;2022-07-09T09:08:40;3.25;;;1.20;;
51852;SDS011;37894;53.172;6.598;2022-07-09T09:11:15;5.68;;;1.73;;
51852;SDS011;37894;53.172;6.598;2022-07-09T09:13:45;7.80;;;1.75;;
51852;SDS011;37894;53.172;6.598;2022-07-09T09:16:11;8.50;;;1.92;;
51852;SDS011;37894;53.172;6.598;2022-07-09T09:18:48;6.93;;;2.05;;
51852;SDS011;37894;53.172;6.598;2022-07-09T09:21:15;3.75;;;1.40;;
51852;SDS011;37894;53.172;6.598;2022-07-09T09:26:23;7.28;;;2.03;;
51852;SDS011;37894;53.172;6.598;2022-07-09T09:28:51;3.13;;;1.55;;
51852;SDS011;37894;53.172;6.598;2022-07-09T09:33:51;4.00;;;1.90;;
51852;SDS011;37894;53.172;6.598;2022-07-09T09:36:28;6.55;;;1.95;;
51852;SDS011;37894;53.172;6.598;2022-07-09T09:39:06;11.07;;;1.60;;
51852;SDS011;37894;53.172;6.598;2022-07-09T09:44:17;5.20;;;1.65;;
51852;SDS011;37894;53.172;6.598;2022-07-09T09:46:51;5.72;;;1.55;;
51852;SDS011;37894;53.172;6.598;2022-07-09T09:49:18;6.95;;;1.98;;
51852;SDS011;37894;53.172;6.598;2022-07-09T09:54:19;5.07;;;1.63;;
51852;SDS011;37894;53.172;6.598;2022-07-09T09:56:46;6.50;;;1.85;;
51852;SDS011;37894;53.172;6.598;2022-07-09T09:59:12;6.45;;;2.10;;
51852;SDS011;37894;53.172;6.598;2022-07-09T10:01:42;4.78;;;1.50;;
51852;SDS011;37894;53.172;6.598;2022-07-09T10:04:09;4.53;;;1.50;;
51852;SDS011;37894;53.172;6.598;2022-07-09T10:06:35;4.88;;;1.75;;
51852;SDS011;37894;53.172;6.598;2022-07-09T10:09:05;6.60;;;1.60;;
51852;SDS011;37894;53.172;6.598;2022-07-09T10:11:45;6.22;;;1.77;;
51852;SDS011;37894;53.172;6.598;2022-07-09T10:16:50;9.10;;;2.30;;
51852;SDS011;37894;53.172;6.598;2022-07-09T10:19:30;5.20;;;1.67;;
51852;SDS011;37894;53.172;6.598;2022-07-09T10:21:59;7.57;;;2.10;;
51852;SDS011;37894;53.172;6.598;2022-07-09T10:24:29;7.45;;;1.95;;
51852;SDS011;37894;53.172;6.598;2022-07-09T10:27:05;4.25;;;1.75;;
51852;SDS011;37894;53.172;6.598;2022-07-09T10:29:32;6.95;;;1.80;;
51852;SDS011;37894;53.172;6.598;2022-07-09T10:31:58;6.45;;;1.77;;
51852;SDS011;37894;53.172;6.598;2022-07-09T10:37:07;7.90;;;2.17;;
51852;SDS011;37894;53.172;6.598;2022-07-09T10:39:33;14.05;;;2.22;;
51852;SDS011;37894;53.172;6.598;2022-07-09T10:42:00;5.57;;;2.00;;
51852;SDS011;37894;53.172;6.598;2022-07-09T10:44:42;7.60;;;2.25;;
51852;SDS011;37894;53.172;6.598;2022-07-09T10:47:08;9.98;;;2.00;;
51852;SDS011;37894;53.172;6.598;2022-07-09T10:49:34;9.60;;;1.77;;
51852;SDS011;37894;53.172;6.598;2022-07-09T10:52:01;8.32;;;1.58;;
51852;SDS011;37894;53.172;6.598;2022-07-09T10:54:27;7.97;;;1.77;;
51852;SDS011;37894;53.172;6.598;2022-07-09T10:56:53;7.72;;;1.55;;
51852;SDS011;37894;53.172;6.598;2022-07-09T10:59:20;15.85;;;2.08;;
51852;SDS011;37894;53.172;6.598;2022-07-09T11:01:46;6.13;;;1.38;;
51852;SDS011;37894;53.172;6.598;2022-07-09T11:04:23;6.15;;;2.08;;
51852;SDS011;37894;53.172;6.598;2022-07-09T11:06:49;10.82;;;2.28;;
51852;SDS011;37894;53.172;6.598;2022-07-09T11:09:15;10.50;;;2.22;;
51852;SDS011;37894;53.172;6.598;2022-07-09T11:11:42;4.22;;;1.45;;
51852;SDS011;37894;53.172;6.598;2022-07-09T11:14:09;6.35;;;1.63;;
51852;SDS011;37894;53.172;6.598;2022-07-09T11:16:35;7.53;;;1.98;;
51852;SDS011;37894;53.172;6.598;2022-07-09T11:21:43;6.95;;;1.13;;
51852;SDS011;37894;53.172;6.598;2022-07-09T11:24:17;6.63;;;1.48;;
51852;SDS011;37894;53.172;6.598;2022-07-09T11:26:44;4.53;;;1.38;;
51852;SDS011;37894;53.172;6.598;2022-07-09T11:29:12;7.57;;;1.25;;
51852;SDS011;37894;53.172;6.598;2022-07-09T11:31:48;7.07;;;1.27;;
51852;SDS011;37894;53.172;6.598;2022-07-09T11:34:15;6.45;;;1.20;;
51852;SDS011;37894;53.172;6.598;2022-07-09T11:36:43;2.97;;;1.13;;
51852;SDS011;37894;53.172;6.598;2022-07-09T11:39:20;7.35;;;1.30;;
51852;SDS011;37894;53.172;6.598;2022-07-09T11:41:49;5.00;;;1.05;;
51852;SDS011;37894;53.172;6.598;2022-07-09T11:44:33;7.97;;;1.48;;
51852;SDS011;37894;53.172;6.598;2022-07-09T11:47:06;6.20;;;1.48;;
51852;SDS011;37894;53.172;6.598;2022-07-09T11:49:39;7.25;;;1.58;;
51852;SDS011;37894;53.172;6.598;2022-07-09T11:55:11;6.20;;;1.67;;
51852;SDS011;37894;53.172;6.598;2022-07-09T11:57:39;8.10;;;1.30;;
51852;SDS011;37894;53.172;6.598;2022-07-09T12:00:20;4.47;;;1.00;;
51852;SDS011;37894;53.172;6.598;2022-07-09T12:02:50;4.75;;;1.00;;
51852;SDS011;37894;53.172;6.598;2022-07-09T12:07:56;5.05;;;1.02;;
51852;SDS011;37894;53.172;6.598;2022-07-09T12:10:31;4.97;;;1.08;;
51852;SDS011;37894;53.172;6.598;2022-07-09T12:12:58;7.53;;;1.55;;
51852;SDS011;37894;53.172;6.598;2022-07-09T12:15:24;7.43;;;1.30;;
51852;SDS011;37894;53.172;6.598;2022-07-09T12:17:51;4.03;;;1.10;;
51852;SDS011;37894;53.172;6.598;2022-07-09T12:20:19;6.20;;;1.10;;
51852;SDS011;37894;53.172;6.598;2022-07-09T12:22:49;5.40;;;0.90;;
51852;SDS011;37894;53.172;6.598;2022-07-09T12:25:15;5.70;;;1.65;;
51852;SDS011;37894;53.172;6.598;2022-07-09T12:27:41;5.75;;;1.75;;
51852;SDS011;37894;53.172;6.598;2022-07-09T12:30:07;7.60;;;1.60;;
51852;SDS011;37894;53.172;6.598;2022-07-09T12:32:33;8.40;;;1.40;;
51852;SDS011;37894;53.172;6.598;2022-07-09T12:35:00;3.92;;;1.13;;
51852;SDS011;37894;53.172;6.598;2022-07-09T12:37:29;5.45;;;1.30;;
51852;SDS011;37894;53.172;6.598;2022-07-09T12:39:54;5.95;;;1.25;;
51852;SDS011;37894;53.172;6.598;2022-07-09T12:42:20;3.15;;;0.98;;
51852;SDS011;37894;53.172;6.598;2022-07-09T12:44:46;4.78;;;0.93;;
51852;SDS011;37894;53.172;6.598;2022-07-09T12:47:13;3.20;;;1.10;;
51852;SDS011;37894;53.172;6.598;2022-07-09T12:49:38;5.22;;;1.48;;
51852;SDS011;37894;53.172;6.598;2022-07-09T12:52:04;6.70;;;1.50;;
51852;SDS011;37894;53.172;6.598;2022-07-09T12:54:30;5.55;;;1.10;;
51852;SDS011;37894;53.172;6.598;2022-07-09T12:56:56;5.10;;;1.63;;
51852;SDS011;37894;53.172;6.598;2022-07-09T12:59:22;4.75;;;0.82;;
51852;SDS011;37894;53.172;6.598;2022-07-09T13:01:48;6.15;;;1.27;;
51852;SDS011;37894;53.172;6.598;2022-07-09T13:04:13;6.03;;;1.13;;
51852;SDS011;37894;53.172;6.598;2022-07-09T13:06:39;4.32;;;1.10;;
51852;SDS011;37894;53.172;6.598;2022-07-09T13:09:09;5.43;;;1.00;;
51852;SDS011;37894;53.172;6.598;2022-07-09T13:11:36;4.93;;;1.30;;
51852;SDS011;37894;53.172;6.598;2022-07-09T13:14:02;3.22;;;1.08;;
51852;SDS011;37894;53.172;6.598;2022-07-09T13:16:28;6.35;;;1.48;;
51852;SDS011;37894;53.172;6.598;2022-07-09T13:18:54;7.25;;;1.40;;
51852;SDS011;37894;53.172;6.598;2022-07-09T13:21:20;5.22;;;1.05;;
51852;SDS011;37894;53.172;6.598;2022-07-09T13:23:47;5.57;;;1.20;;
51852;SDS011;37894;53.172;6.598;2022-07-09T13:26:14;4.78;;;1.10;;
51852;SDS011;37894;53.172;6.598;2022-07-09T13:28:40;7.95;;;1.40;;
51852;SDS011;37894;53.172;6.598;2022-07-09T13:31:06;4.47;;;0.93;;
51852;SDS011;37894;53.172;6.598;2022-07-09T13:33:32;6.47;;;1.33;;
51852;SDS011;37894;53.172;6.598;2022-07-09T13:35:58;4.93;;;1.13;;
51852;SDS011;37894;53.172;6.598;2022-07-09T13:38:25;4.55;;;1.02;;
51852;SDS011;37894;53.172;6.598;2022-07-09T13:40:50;5.05;;;1.10;;
51852;SDS011;37894;53.172;6.598;2022-07-09T13:43:16;4.53;;;0.90;;
51852;SDS011;37894;53.172;6.598;2022-07-09T13:45:42;5.53;;;1.00;;
51852;SDS011;37894;53.172;6.598;2022-07-09T13:48:08;8.50;;;1.67;;
51852;SDS011;37894;53.172;6.598;2022-07-09T13:50:43;5.80;;;1.42;;
51852;SDS011;37894;53.172;6.598;2022-07-09T13:53:09;7.30;;;1.30;;
51852;SDS011;37894;53.172;6.598;2022-07-09T13:55:35;6.07;;;1.02;;
51852;SDS011;37894;53.172;6.598;2022-07-09T13:58:00;5.07;;;1.23;;
51852;SDS011;37894;53.172;6.598;2022-07-09T14:00:26;3.75;;;1.08;;
51852;SDS011;37894;53.172;6.598;2022-07-09T14:02:52;4.93;;;1.48;;
51852;SDS011;37894;53.172;6.598;2022-07-09T14:05:18;4.50;;;1.15;;
51852;SDS011;37894;53.172;6.598;2022-07-09T14:07:44;3.05;;;1.10;;
51852;SDS011;37894;53.172;6.598;2022-07-09T14:10:11;5.40;;;1.10;;
51852;SDS011;37894;53.172;6.598;2022-07-09T14:12:37;6.38;;;1.40;;
51852;SDS011;37894;53.172;6.598;2022-07-09T14:15:03;4.78;;;1.10;;
51852;SDS011;37894;53.172;6.598;2022-07-09T14:17:29;7.80;;;1.48;;
51852;SDS011;37894;53.172;6.598;2022-07-09T14:19:55;7.22;;;1.40;;
51852;SDS011;37894;53.172;6.598;2022-07-09T14:22:20;3.97;;;1.23;;
51852;SDS011;37894;53.172;6.598;2022-07-09T14:24:46;5.72;;;1.25;;
51852;SDS011;37894;53.172;6.598;2022-07-09T14:27:12;9.82;;;1.42;;
51852;SDS011;37894;53.172;6.598;2022-07-09T14:29:38;5.45;;;1.30;;
51852;SDS011;37894;53.172;6.598;2022-07-09T14:32:04;5.07;;;1.30;;
51852;SDS011;37894;53.172;6.598;2022-07-09T14:34:33;6.85;;;1.45;;
51852;SDS011;37894;53.172;6.598;2022-07-09T14:36:59;6.90;;;1.30;;
51852;SDS011;37894;53.172;6.598;2022-07-09T14:39:25;5.05;;;1.58;;
51852;SDS011;37894;53.172;6.598;2022-07-09T14:41:51;5.60;;;1.50;;
51852;SDS011;37894;53.172;6.598;2022-07-09T14:44:17;6.93;;;1.60;;
51852;SDS011;37894;53.172;6.598;2022-07-09T14:46:43;7.07;;;1.60;;
51852;SDS011;37894;53.172;6.598;2022-07-09T14:49:09;5.78;;;1.35;;
51852;SDS011;37894;53.172;6.598;2022-07-09T14:51:35;6.78;;;1.30;;
51852;SDS011;37894;53.172;6.598;2022-07-09T14:54:05;4.32;;;1.30;;
51852;SDS011;37894;53.172;6.598;2022-07-09T14:56:31;3.28;;;1.10;;
51852;SDS011;37894;53.172;6.598;2022-07-09T14:58:57;6.00;;;1.20;;
51852;SDS011;37894;53.172;6.598;2022-07-09T15:01:23;5.03;;;1.38;;
51852;SDS011;37894;53.172;6.598;2022-07-09T15:03:48;4.20;;;1.10;;